sensor_id;sensor_type;location;lat;lon;timestamp;P1;durP1;ratioP1;P2;durP2;ratioP2
10769;SDS011;5437;50.852;4.438;2022-10-22T00:01:25;7.32;;;2.60;;
10769;SDS011;5437;50.852;4.438;2022-10-22T00:03:52;7.18;;;2.72;;
10769;SDS011;5437;50.852;4.438;2022-10-22T00:06:18;5.57;;;2.60;;
10769;SDS011;5437;50.852;4.438;2022-10-22T00:08:44;6.57;;;2.63;;
10769;SDS011;5437;50.852;4.438;2022-10-22T00:11:14;7.80;;;2.75;;
10769;SDS011;5437;50.852;4.438;2022-10-22T00:13:40;5.15;;;2.78;;
10769;SDS011;5437;50.852;4.438;2022-10-22T00:16:06;8.10;;;2.72;;
10769;SDS011;5437;50.852;4.438;2022-10-22T00:18:33;7.10;;;2.60;;
10769;SDS011;5437;50.852;4.438;2022-10-22T00:20:59;5.13;;;2.83;;
10769;SDS011;5437;50.852;4.438;2022-10-22T00:23:25;6.95;;;2.85;;
10769;SDS011;5437;50.852;4.438;2022-10-22T00:25:51;6.28;;;2.13;;
10769;SDS011;5437;50.852;4.438;2022-10-22T00:28:17;7.38;;;3.10;;
10769;SDS011;5437;50.852;4.438;2022-10-22T00:30:43;7.82;;;2.92;;
10769;SDS011;5437;50.852;4.438;2022-10-22T00:33:09;6.00;;;2.50;;
10769;SDS011;5437;50.852;4.438;2022-10-22T00:35:36;5.47;;;2.60;;
10769;SDS011;5437;50.852;4.438;2022-10-22T00:38:02;5.15;;;2.60;;
10769;SDS011;5437;50.852;4.438;2022-10-22T00:40:28;6.25;;;2.50;;
10769;SDS011;5437;50.852;4.438;2022-10-22T00:42:54;6.15;;;2.40;;
10769;SDS011;5437;50.852;4.438;2022-10-22T00:45:23;7.80;;;2.88;;
10769;SDS011;5437;50.852;4.438;2022-10-22T00:47:51;7.68;;;2.75;;
10769;SDS011;5437;50.852;4.438;2022-10-22T00:50:30;7.80;;;3.00;;
10769;SDS011;5437;50.852;4.438;2022-10-22T00:52:57;6.60;;;2.47;;
10769;SDS011;5437;50.852;4.438;2022-10-22T00:55:24;7.63;;;2.83;;
10769;SDS011;5437;50.852;4.438;2022-10-22T00:57:51;8.65;;;2.90;;
10769;SDS011;5437;50.852;4.438;2022-10-22T01:00:18;7.15;;;2.63;;
10769;SDS011;5437;50.852;4.438;2022-10-22T01:02:44;8.73;;;2.90;;
10769;SDS011;5437;50.852;4.438;2022-10-22T01:05:11;7.07;;;2.80;;
10769;SDS011;5437;50.852;4.438;2022-10-22T01:07:42;6.88;;;2.75;;
10769;SDS011;5437;50.852;4.438;2022-10-22T01:22:58;8.80;;;2.90;;
10769;SDS011;5437;50.852;4.438;2022-10-22T01:25:30;7.30;;;3.00;;
10769;SDS011;5437;50.852;4.438;2022-10-22T01:30:30;5.55;;;2.78;;
10769;SDS011;5437;50.852;4.438;2022-10-22T01:32:58;6.63;;;2.58;;
10769;SDS011;5437;50.852;4.438;2022-10-22T01:35:27;9.30;;;3.25;;
10769;SDS011;5437;50.852;4.438;2022-10-22T01:37:57;7.30;;;2.92;;
10769;SDS011;5437;50.852;4.438;2022-10-22T01:40:24;7.60;;;3.10;;
10769;SDS011;5437;50.852;4.438;2022-10-22T01:42:55;5.18;;;2.53;;
10769;SDS011;5437;50.852;4.438;2022-10-22T01:45:22;6.30;;;2.80;;
10769;SDS011;5437;50.852;4.438;2022-10-22T01:47:53;5.85;;;2.92;;
10769;SDS011;5437;50.852;4.438;2022-10-22T01:50:31;5.30;;;2.67;;
10769;SDS011;5437;50.852;4.438;2022-10-22T01:53:04;5.20;;;2.95;;
10769;SDS011;5437;50.852;4.438;2022-10-22T01:55:39;6.70;;;2.88;;
10769;SDS011;5437;50.852;4.438;2022-10-22T01:58:21;5.40;;;2.40;;
10769;SDS011;5437;50.852;4.438;2022-10-22T02:01:03;8.80;;;2.75;;
10769;SDS011;5437;50.852;4.438;2022-10-22T02:03:33;5.40;;;2.40;;
10769;SDS011;5437;50.852;4.438;2022-10-22T02:06:02;6.93;;;2.72;;
10769;SDS011;5437;50.852;4.438;2022-10-22T02:08:31;5.15;;;2.35;;
10769;SDS011;5437;50.852;4.438;2022-10-22T02:10:58;4.88;;;2.70;;
10769;SDS011;5437;50.852;4.438;2022-10-22T02:13:29;6.60;;;2.42;;
10769;SDS011;5437;50.852;4.438;2022-10-22T02:15:56;5.78;;;2.63;;
10769;SDS011;5437;50.852;4.438;2022-10-22T02:18:24;7.65;;;2.50;;
10769;SDS011;5437;50.852;4.438;2022-10-22T02:20:51;5.60;;;2.58;;
10769;SDS011;5437;50.852;4.438;2022-10-22T02:23:17;11.30;;;2.80;;
10769;SDS011;5437;50.852;4.438;2022-10-22T02:25:45;6.50;;;2.50;;
10769;SDS011;5437;50.852;4.438;2022-10-22T02:30:41;5.10;;;2.42;;
10769;SDS011;5437;50.852;4.438;2022-10-22T02:33:10;6.30;;;2.30;;
10769;SDS011;5437;50.852;4.438;2022-10-22T02:35:37;4.05;;;2.45;;
10769;SDS011;5437;50.852;4.438;2022-10-22T02:38:04;6.93;;;2.30;;
10769;SDS011;5437;50.852;4.438;2022-10-22T02:40:31;8.27;;;2.60;;
10769;SDS011;5437;50.852;4.438;2022-10-22T02:42:57;6.70;;;2.63;;
10769;SDS011;5437;50.852;4.438;2022-10-22T02:45:23;3.53;;;2.10;;
10769;SDS011;5437;50.852;4.438;2022-10-22T02:47:49;6.07;;;2.20;;
10769;SDS011;5437;50.852;4.438;2022-10-22T02:50:15;6.97;;;2.40;;
10769;SDS011;5437;50.852;4.438;2022-10-22T02:52:41;4.32;;;1.98;;
10769;SDS011;5437;50.852;4.438;2022-10-22T02:55:08;4.65;;;2.13;;
10769;SDS011;5437;50.852;4.438;2022-10-22T02:57:34;7.82;;;2.50;;
10769;SDS011;5437;50.852;4.438;2022-10-22T03:00:00;5.43;;;2.20;;
10769;SDS011;5437;50.852;4.438;2022-10-22T03:02:26;6.30;;;2.22;;
10769;SDS011;5437;50.852;4.438;2022-10-22T03:04:52;4.93;;;2.08;;
10769;SDS011;5437;50.852;4.438;2022-10-22T03:07:18;4.13;;;2.17;;
10769;SDS011;5437;50.852;4.438;2022-10-22T03:09:44;5.20;;;2.00;;
10769;SDS011;5437;50.852;4.438;2022-10-22T03:12:10;4.35;;;1.90;;
10769;SDS011;5437;50.852;4.438;2022-10-22T03:14:36;4.95;;;1.90;;
10769;SDS011;5437;50.852;4.438;2022-10-22T03:17:02;5.00;;;1.95;;
10769;SDS011;5437;50.852;4.438;2022-10-22T03:19:28;5.60;;;2.10;;
10769;SDS011;5437;50.852;4.438;2022-10-22T03:24:25;5.40;;;2.15;;
10769;SDS011;5437;50.852;4.438;2022-10-22T03:26:52;7.28;;;2.33;;
10769;SDS011;5437;50.852;4.438;2022-10-22T03:29:19;7.18;;;2.10;;
10769;SDS011;5437;50.852;4.438;2022-10-22T03:31:46;5.72;;;2.20;;
10769;SDS011;5437;50.852;4.438;2022-10-22T03:34:12;8.30;;;2.10;;
10769;SDS011;5437;50.852;4.438;2022-10-22T03:36:39;3.47;;;1.88;;
10769;SDS011;5437;50.852;4.438;2022-10-22T03:39:05;7.28;;;2.15;;
10769;SDS011;5437;50.852;4.438;2022-10-22T03:41:32;6.55;;;2.38;;
10769;SDS011;5437;50.852;4.438;2022-10-22T03:43:59;5.03;;;1.90;;
10769;SDS011;5437;50.852;4.438;2022-10-22T03:46:25;7.28;;;2.00;;
10769;SDS011;5437;50.852;4.438;2022-10-22T03:48:51;6.35;;;2.30;;
10769;SDS011;5437;50.852;4.438;2022-10-22T03:51:17;4.50;;;2.42;;
10769;SDS011;5437;50.852;4.438;2022-10-22T03:53:43;3.80;;;1.95;;
10769;SDS011;5437;50.852;4.438;2022-10-22T03:56:10;4.78;;;2.17;;
10769;SDS011;5437;50.852;4.438;2022-10-22T03:58:37;5.85;;;1.80;;
10769;SDS011;5437;50.852;4.438;2022-10-22T04:01:06;5.38;;;2.08;;
10769;SDS011;5437;50.852;4.438;2022-10-22T04:03:32;4.35;;;1.80;;
10769;SDS011;5437;50.852;4.438;2022-10-22T04:06:02;4.15;;;2.00;;
10769;SDS011;5437;50.852;4.438;2022-10-22T04:08:29;5.00;;;2.00;;
10769;SDS011;5437;50.852;4.438;2022-10-22T04:10:55;5.22;;;1.65;;
10769;SDS011;5437;50.852;4.438;2022-10-22T04:13:21;5.68;;;1.88;;
10769;SDS011;5437;50.852;4.438;2022-10-22T04:15:47;6.38;;;2.00;;
10769;SDS011;5437;50.852;4.438;2022-10-22T04:18:13;5.00;;;1.98;;
10769;SDS011;5437;50.852;4.438;2022-10-22T04:20:40;7.90;;;1.83;;
10769;SDS011;5437;50.852;4.438;2022-10-22T04:23:06;6.22;;;1.63;;
10769;SDS011;5437;50.852;4.438;2022-10-22T04:25:32;8.82;;;1.90;;
10769;SDS011;5437;50.852;4.438;2022-10-22T04:27:58;9.38;;;2.15;;
10769;SDS011;5437;50.852;4.438;2022-10-22T04:30:24;5.63;;;1.80;;
10769;SDS011;5437;50.852;4.438;2022-10-22T04:32:50;5.43;;;1.73;;
10769;SDS011;5437;50.852;4.438;2022-10-22T04:35:16;5.07;;;1.95;;
10769;SDS011;5437;50.852;4.438;2022-10-22T04:37:42;5.78;;;1.55;;
10769;SDS011;5437;50.852;4.438;2022-10-22T04:40:08;4.32;;;1.63;;
10769;SDS011;5437;50.852;4.438;2022-10-22T04:42:34;3.63;;;1.77;;
10769;SDS011;5437;50.852;4.438;2022-10-22T04:45:00;5.25;;;1.60;;
10769;SDS011;5437;50.852;4.438;2022-10-22T04:47:26;4.88;;;1.98;;
10769;SDS011;5437;50.852;4.438;2022-10-22T04:49:52;4.32;;;1.95;;
10769;SDS011;5437;50.852;4.438;2022-10-22T04:52:18;4.35;;;1.50;;
10769;SDS011;5437;50.852;4.438;2022-10-22T04:54:45;4.97;;;1.60;;
10769;SDS011;5437;50.852;4.438;2022-10-22T04:57:11;4.95;;;1.60;;
10769;SDS011;5437;50.852;4.438;2022-10-22T04:59:38;4.13;;;1.50;;
10769;SDS011;5437;50.852;4.438;2022-10-22T05:02:04;7.78;;;2.00;;
10769;SDS011;5437;50.852;4.438;2022-10-22T05:04:30;3.10;;;1.60;;
10769;SDS011;5437;50.852;4.438;2022-10-22T05:06:56;6.18;;;1.85;;
10769;SDS011;5437;50.852;4.438;2022-10-22T05:09:23;6.55;;;1.73;;
10769;SDS011;5437;50.852;4.438;2022-10-22T05:11:49;8.07;;;1.90;;
10769;SDS011;5437;50.852;4.438;2022-10-22T05:14:16;5.35;;;1.90;;
10769;SDS011;5437;50.852;4.438;2022-10-22T05:16:43;5.80;;;2.10;;
10769;SDS011;5437;50.852;4.438;2022-10-22T05:19:13;5.10;;;1.90;;
10769;SDS011;5437;50.852;4.438;2022-10-22T05:21:40;5.32;;;1.73;;
10769;SDS011;5437;50.852;4.438;2022-10-22T05:24:06;5.35;;;1.70;;
10769;SDS011;5437;50.852;4.438;2022-10-22T05:26:32;4.85;;;1.73;;
10769;SDS011;5437;50.852;4.438;2022-10-22T05:28:58;7.30;;;1.83;;
10769;SDS011;5437;50.852;4.438;2022-10-22T05:31:24;6.47;;;1.73;;
10769;SDS011;5437;50.852;4.438;2022-10-22T05:33:52;4.90;;;1.95;;
10769;SDS011;5437;50.852;4.438;2022-10-22T05:36:19;4.38;;;1.55;;
10769;SDS011;5437;50.852;4.438;2022-10-22T05:38:45;4.88;;;1.98;;
10769;SDS011;5437;50.852;4.438;2022-10-22T05:41:12;3.35;;;1.63;;
10769;SDS011;5437;50.852;4.438;2022-10-22T05:43:39;2.88;;;1.20;;
10769;SDS011;5437;50.852;4.438;2022-10-22T05:46:06;5.32;;;1.77;;
10769;SDS011;5437;50.852;4.438;2022-10-22T05:48:32;4.22;;;1.70;;
10769;SDS011;5437;50.852;4.438;2022-10-22T05:51:06;4.95;;;1.63;;
10769;SDS011;5437;50.852;4.438;2022-10-22T05:53:32;6.53;;;1.83;;
10769;SDS011;5437;50.852;4.438;2022-10-22T05:56:03;4.72;;;1.52;;
10769;SDS011;5437;50.852;4.438;2022-10-22T05:58:29;4.72;;;1.40;;
10769;SDS011;5437;50.852;4.438;2022-10-22T06:01:18;5.78;;;1.40;;
10769;SDS011;5437;50.852;4.438;2022-10-22T06:03:42;5.18;;;2.00;;
10769;SDS011;5437;50.852;4.438;2022-10-22T06:06:14;4.00;;;1.60;;
10769;SDS011;5437;50.852;4.438;2022-10-22T06:08:42;4.70;;;1.52;;
10769;SDS011;5437;50.852;4.438;2022-10-22T06:11:08;4.68;;;1.80;;
10769;SDS011;5437;50.852;4.438;2022-10-22T06:13:34;5.68;;;1.60;;
10769;SDS011;5437;50.852;4.438;2022-10-22T06:16:00;6.15;;;1.60;;
10769;SDS011;5437;50.852;4.438;2022-10-22T06:18:26;6.13;;;1.80;;
10769;SDS011;5437;50.852;4.438;2022-10-22T06:20:52;4.45;;;1.67;;
10769;SDS011;5437;50.852;4.438;2022-10-22T06:23:18;4.40;;;1.65;;
10769;SDS011;5437;50.852;4.438;2022-10-22T06:25:54;4.50;;;1.70;;
10769;SDS011;5437;50.852;4.438;2022-10-22T06:28:20;6.90;;;1.63;;
10769;SDS011;5437;50.852;4.438;2022-10-22T06:30:46;4.00;;;1.40;;
10769;SDS011;5437;50.852;4.438;2022-10-22T06:33:12;6.32;;;1.65;;
10769;SDS011;5437;50.852;4.438;2022-10-22T06:35:38;6.07;;;2.05;;
10769;SDS011;5437;50.852;4.438;2022-10-22T06:38:04;3.30;;;1.48;;
10769;SDS011;5437;50.852;4.438;2022-10-22T06:40:31;7.70;;;1.77;;
10769;SDS011;5437;50.852;4.438;2022-10-22T06:43:00;3.80;;;1.80;;
10769;SDS011;5437;50.852;4.438;2022-10-22T06:45:26;7.38;;;1.88;;
10769;SDS011;5437;50.852;4.438;2022-10-22T06:47:52;5.05;;;1.63;;
10769;SDS011;5437;50.852;4.438;2022-10-22T06:50:19;4.20;;;1.75;;
10769;SDS011;5437;50.852;4.438;2022-10-22T06:52:45;5.70;;;1.85;;
10769;SDS011;5437;50.852;4.438;2022-10-22T06:55:11;4.22;;;1.67;;
10769;SDS011;5437;50.852;4.438;2022-10-22T06:57:37;7.93;;;2.05;;
10769;SDS011;5437;50.852;4.438;2022-10-22T07:00:06;7.38;;;1.75;;
10769;SDS011;5437;50.852;4.438;2022-10-22T07:02:32;4.05;;;1.60;;
10769;SDS011;5437;50.852;4.438;2022-10-22T07:04:58;5.65;;;1.80;;
10769;SDS011;5437;50.852;4.438;2022-10-22T07:07:24;4.35;;;1.60;;
10769;SDS011;5437;50.852;4.438;2022-10-22T07:09:50;6.97;;;1.73;;
10769;SDS011;5437;50.852;4.438;2022-10-22T07:12:16;5.40;;;1.95;;
10769;SDS011;5437;50.852;4.438;2022-10-22T07:14:42;5.70;;;1.77;;
10769;SDS011;5437;50.852;4.438;2022-10-22T07:17:08;6.03;;;1.75;;
10769;SDS011;5437;50.852;4.438;2022-10-22T07:19:34;3.53;;;1.60;;
10769;SDS011;5437;50.852;4.438;2022-10-22T07:22:01;4.95;;;1.50;;
10769;SDS011;5437;50.852;4.438;2022-10-22T07:24:27;6.15;;;2.03;;
10769;SDS011;5437;50.852;4.438;2022-10-22T07:26:53;4.50;;;1.67;;
10769;SDS011;5437;50.852;4.438;2022-10-22T07:29:19;7.07;;;2.10;;
10769;SDS011;5437;50.852;4.438;2022-10-22T07:31:45;5.80;;;1.65;;
10769;SDS011;5437;50.852;4.438;2022-10-22T07:34:11;5.07;;;1.70;;
10769;SDS011;5437;50.852;4.438;2022-10-22T07:36:37;6.10;;;1.98;;
10769;SDS011;5437;50.852;4.438;2022-10-22T07:39:03;6.05;;;1.50;;
10769;SDS011;5437;50.852;4.438;2022-10-22T07:41:29;4.93;;;1.90;;
10769;SDS011;5437;50.852;4.438;2022-10-22T07:43:56;4.47;;;1.40;;
10769;SDS011;5437;50.852;4.438;2022-10-22T07:46:22;4.00;;;1.60;;
10769;SDS011;5437;50.852;4.438;2022-10-22T07:48:49;6.95;;;1.60;;
10769;SDS011;5437;50.852;4.438;2022-10-22T07:51:15;6.00;;;1.77;;
10769;SDS011;5437;50.852;4.438;2022-10-22T07:53:41;10.63;;;1.60;;
10769;SDS011;5437;50.852;4.438;2022-10-22T07:56:07;4.32;;;1.40;;
10769;SDS011;5437;50.852;4.438;2022-10-22T07:58:33;5.38;;;1.73;;
10769;SDS011;5437;50.852;4.438;2022-10-22T08:01:00;4.75;;;1.45;;
10769;SDS011;5437;50.852;4.438;2022-10-22T08:03:26;6.05;;;1.50;;
10769;SDS011;5437;50.852;4.438;2022-10-22T08:05:53;5.55;;;1.60;;
10769;SDS011;5437;50.852;4.438;2022-10-22T08:08:19;5.75;;;2.05;;
10769;SDS011;5437;50.852;4.438;2022-10-22T08:10:46;7.00;;;1.65;;
10769;SDS011;5437;50.852;4.438;2022-10-22T08:13:12;3.58;;;1.30;;
10769;SDS011;5437;50.852;4.438;2022-10-22T08:15:38;6.63;;;1.65;;
10769;SDS011;5437;50.852;4.438;2022-10-22T08:18:05;4.53;;;1.48;;
10769;SDS011;5437;50.852;4.438;2022-10-22T08:20:31;6.45;;;1.67;;
10769;SDS011;5437;50.852;4.438;2022-10-22T08:22:57;3.47;;;1.40;;
10769;SDS011;5437;50.852;4.438;2022-10-22T08:25:23;4.38;;;1.45;;
10769;SDS011;5437;50.852;4.438;2022-10-22T08:27:49;4.10;;;1.58;;
10769;SDS011;5437;50.852;4.438;2022-10-22T08:30:15;6.18;;;1.83;;
10769;SDS011;5437;50.852;4.438;2022-10-22T08:32:41;3.35;;;1.48;;
10769;SDS011;5437;50.852;4.438;2022-10-22T08:35:07;3.88;;;1.55;;
10769;SDS011;5437;50.852;4.438;2022-10-22T08:37:33;4.65;;;1.33;;
10769;SDS011;5437;50.852;4.438;2022-10-22T08:39:59;5.38;;;1.65;;
10769;SDS011;5437;50.852;4.438;2022-10-22T08:42:30;7.07;;;1.83;;
10769;SDS011;5437;50.852;4.438;2022-10-22T08:50:04;4.78;;;1.83;;
10769;SDS011;5437;50.852;4.438;2022-10-22T08:52:30;9.15;;;1.65;;
10769;SDS011;5437;50.852;4.438;2022-10-22T08:54:58;5.95;;;1.70;;
10769;SDS011;5437;50.852;4.438;2022-10-22T09:00:09;7.32;;;1.67;;
10769;SDS011;5437;50.852;4.438;2022-10-22T09:05:54;5.13;;;1.92;;
10769;SDS011;5437;50.852;4.438;2022-10-22T09:07:51;5.80;;;1.63;;
10769;SDS011;5437;50.852;4.438;2022-10-22T09:10:17;6.30;;;1.80;;
10769;SDS011;5437;50.852;4.438;2022-10-22T09:12:44;6.03;;;1.80;;
10769;SDS011;5437;50.852;4.438;2022-10-22T09:15:16;6.30;;;2.13;;
10769;SDS011;5437;50.852;4.438;2022-10-22T09:20:16;8.27;;;1.60;;
10769;SDS011;5437;50.852;4.438;2022-10-22T09:25:23;4.30;;;1.58;;
10769;SDS011;5437;50.852;4.438;2022-10-22T09:27:50;5.63;;;1.70;;
10769;SDS011;5437;50.852;4.438;2022-10-22T09:30:19;6.18;;;1.90;;
10769;SDS011;5437;50.852;4.438;2022-10-22T09:32:45;4.88;;;1.58;;
10769;SDS011;5437;50.852;4.438;2022-10-22T09:35:13;5.32;;;1.83;;
10769;SDS011;5437;50.852;4.438;2022-10-22T09:37:46;5.97;;;2.08;;
10769;SDS011;5437;50.852;4.438;2022-10-22T09:40:12;4.80;;;1.83;;
10769;SDS011;5437;50.852;4.438;2022-10-22T09:42:39;5.03;;;1.70;;
10769;SDS011;5437;50.852;4.438;2022-10-22T09:45:05;10.93;;;2.10;;
10769;SDS011;5437;50.852;4.438;2022-10-22T09:50:08;5.97;;;1.50;;
10769;SDS011;5437;50.852;4.438;2022-10-22T09:52:38;5.57;;;1.80;;
10769;SDS011;5437;50.852;4.438;2022-10-22T09:55:15;4.95;;;1.75;;
10769;SDS011;5437;50.852;4.438;2022-10-22T09:57:42;8.48;;;2.25;;
10769;SDS011;5437;50.852;4.438;2022-10-22T10:00:08;3.08;;;1.50;;
10769;SDS011;5437;50.852;4.438;2022-10-22T10:02:38;5.55;;;1.75;;
10769;SDS011;5437;50.852;4.438;2022-10-22T10:05:06;6.03;;;1.77;;
10769;SDS011;5437;50.852;4.438;2022-10-22T10:07:33;6.70;;;1.92;;
10769;SDS011;5437;50.852;4.438;2022-10-22T10:10:00;6.72;;;1.88;;
10769;SDS011;5437;50.852;4.438;2022-10-22T10:12:35;8.07;;;2.05;;
10769;SDS011;5437;50.852;4.438;2022-10-22T10:15:10;7.55;;;1.80;;
10769;SDS011;5437;50.852;4.438;2022-10-22T10:25:36;4.00;;;1.92;;
10769;SDS011;5437;50.852;4.438;2022-10-22T10:40:50;7.43;;;1.80;;
10769;SDS011;5437;50.852;4.438;2022-10-22T10:48:53;4.03;;;1.45;;
10769;SDS011;5437;50.852;4.438;2022-10-22T10:56:44;5.60;;;1.58;;
10769;SDS011;5437;50.852;4.438;2022-10-22T10:59:23;5.88;;;1.70;;
10769;SDS011;5437;50.852;4.438;2022-10-22T11:07:03;2.78;;;1.70;;
10769;SDS011;5437;50.852;4.438;2022-10-22T11:09:33;6.00;;;1.67;;
10769;SDS011;5437;50.852;4.438;2022-10-22T11:12:02;5.93;;;1.67;;
10769;SDS011;5437;50.852;4.438;2022-10-22T11:14:49;4.38;;;1.67;;
10769;SDS011;5437;50.852;4.438;2022-10-22T11:17:17;5.57;;;1.50;;
10769;SDS011;5437;50.852;4.438;2022-10-22T11:19:55;4.28;;;1.48;;
10769;SDS011;5437;50.852;4.438;2022-10-22T11:22:37;6.20;;;1.52;;
10769;SDS011;5437;50.852;4.438;2022-10-22T11:25:26;3.70;;;1.60;;
10769;SDS011;5437;50.852;4.438;2022-10-22T11:27:52;3.38;;;1.45;;
10769;SDS011;5437;50.852;4.438;2022-10-22T11:30:22;6.65;;;1.85;;
10769;SDS011;5437;50.852;4.438;2022-10-22T11:32:50;4.28;;;1.40;;
10769;SDS011;5437;50.852;4.438;2022-10-22T11:35:25;6.03;;;1.70;;
10769;SDS011;5437;50.852;4.438;2022-10-22T11:37:51;4.25;;;1.83;;
10769;SDS011;5437;50.852;4.438;2022-10-22T11:40:36;6.35;;;1.55;;
10769;SDS011;5437;50.852;4.438;2022-10-22T11:43:06;4.55;;;1.30;;
10769;SDS011;5437;50.852;4.438;2022-10-22T11:45:33;4.90;;;1.45;;
10769;SDS011;5437;50.852;4.438;2022-10-22T11:50:46;6.55;;;1.40;;
10769;SDS011;5437;50.852;4.438;2022-10-22T11:55:44;3.97;;;1.27;;
10769;SDS011;5437;50.852;4.438;2022-10-22T12:08:40;3.78;;;1.40;;
10769;SDS011;5437;50.852;4.438;2022-10-22T12:16:15;3.50;;;1.20;;
10769;SDS011;5437;50.852;4.438;2022-10-22T12:18:41;3.92;;;1.25;;
10769;SDS011;5437;50.852;4.438;2022-10-22T12:21:12;3.42;;;1.45;;
10769;SDS011;5437;50.852;4.438;2022-10-22T12:23:39;3.15;;;1.13;;
10769;SDS011;5437;50.852;4.438;2022-10-22T12:26:05;3.53;;;1.38;;
10769;SDS011;5437;50.852;4.438;2022-10-22T12:28:40;3.30;;;1.27;;
10769;SDS011;5437;50.852;4.438;2022-10-22T12:31:13;3.80;;;1.30;;
10769;SDS011;5437;50.852;4.438;2022-10-22T12:33:40;3.92;;;1.10;;
10769;SDS011;5437;50.852;4.438;2022-10-22T12:36:06;4.28;;;1.33;;
10769;SDS011;5437;50.852;4.438;2022-10-22T12:38:32;5.20;;;1.27;;
10769;SDS011;5437;50.852;4.438;2022-10-22T12:40:58;3.35;;;1.20;;
10769;SDS011;5437;50.852;4.438;2022-10-22T12:43:25;4.22;;;1.38;;
10769;SDS011;5437;50.852;4.438;2022-10-22T12:45:51;5.13;;;1.40;;
10769;SDS011;5437;50.852;4.438;2022-10-22T12:50:50;3.80;;;1.40;;
10769;SDS011;5437;50.852;4.438;2022-10-22T12:56:13;3.08;;;1.38;;
10769;SDS011;5437;50.852;4.438;2022-10-22T12:58:56;4.57;;;1.50;;
10769;SDS011;5437;50.852;4.438;2022-10-22T13:01:24;3.10;;;1.38;;
10769;SDS011;5437;50.852;4.438;2022-10-22T13:04:02;3.67;;;1.30;;
10769;SDS011;5437;50.852;4.438;2022-10-22T13:06:28;2.75;;;1.25;;
10769;SDS011;5437;50.852;4.438;2022-10-22T13:08:56;3.90;;;1.33;;
10769;SDS011;5437;50.852;4.438;2022-10-22T13:11:23;4.05;;;1.20;;
10769;SDS011;5437;50.852;4.438;2022-10-22T13:14:02;3.50;;;1.55;;
10769;SDS011;5437;50.852;4.438;2022-10-22T13:16:28;2.83;;;1.33;;
10769;SDS011;5437;50.852;4.438;2022-10-22T13:18:55;2.63;;;1.30;;
10769;SDS011;5437;50.852;4.438;2022-10-22T13:21:36;3.35;;;1.15;;
10769;SDS011;5437;50.852;4.438;2022-10-22T13:24:19;4.40;;;1.50;;
10769;SDS011;5437;50.852;4.438;2022-10-22T13:26:52;5.30;;;1.45;;
10769;SDS011;5437;50.852;4.438;2022-10-22T13:29:19;4.80;;;1.40;;
10769;SDS011;5437;50.852;4.438;2022-10-22T13:31:49;4.90;;;1.50;;
10769;SDS011;5437;50.852;4.438;2022-10-22T13:34:17;5.60;;;1.33;;
10769;SDS011;5437;50.852;4.438;2022-10-22T13:36:44;4.93;;;1.48;;
10769;SDS011;5437;50.852;4.438;2022-10-22T13:39:20;3.13;;;1.30;;
10769;SDS011;5437;50.852;4.438;2022-10-22T13:41:46;5.22;;;1.50;;
10769;SDS011;5437;50.852;4.438;2022-10-22T13:44:14;5.43;;;1.48;;
10769;SDS011;5437;50.852;4.438;2022-10-22T13:46:40;5.85;;;1.45;;
10769;SDS011;5437;50.852;4.438;2022-10-22T13:49:14;3.72;;;1.48;;
10769;SDS011;5437;50.852;4.438;2022-10-22T13:51:41;5.43;;;1.60;;
10769;SDS011;5437;50.852;4.438;2022-10-22T13:54:14;4.70;;;1.20;;
10769;SDS011;5437;50.852;4.438;2022-10-22T13:56:41;4.38;;;1.52;;
10769;SDS011;5437;50.852;4.438;2022-10-22T13:59:07;2.42;;;1.35;;
10769;SDS011;5437;50.852;4.438;2022-10-22T14:01:44;4.50;;;1.33;;
10769;SDS011;5437;50.852;4.438;2022-10-22T14:04:11;6.10;;;1.33;;
10769;SDS011;5437;50.852;4.438;2022-10-22T14:06:39;3.35;;;1.30;;
10769;SDS011;5437;50.852;4.438;2022-10-22T14:09:06;5.07;;;1.60;;
10769;SDS011;5437;50.852;4.438;2022-10-22T14:11:37;4.57;;;1.40;;
10769;SDS011;5437;50.852;4.438;2022-10-22T14:14:03;3.75;;;1.48;;
10769;SDS011;5437;50.852;4.438;2022-10-22T14:16:32;3.28;;;1.17;;
10769;SDS011;5437;50.852;4.438;2022-10-22T14:18:59;4.57;;;1.30;;
10769;SDS011;5437;50.852;4.438;2022-10-22T14:21:34;3.95;;;1.33;;
10769;SDS011;5437;50.852;4.438;2022-10-22T14:24:00;4.43;;;1.60;;
10769;SDS011;5437;50.852;4.438;2022-10-22T14:26:28;4.32;;;1.55;;
10769;SDS011;5437;50.852;4.438;2022-10-22T14:28:57;5.80;;;1.35;;
10769;SDS011;5437;50.852;4.438;2022-10-22T14:31:23;2.80;;;1.33;;
10769;SDS011;5437;50.852;4.438;2022-10-22T14:33:49;3.40;;;1.55;;
10769;SDS011;5437;50.852;4.438;2022-10-22T14:36:16;3.45;;;1.20;;
10769;SDS011;5437;50.852;4.438;2022-10-22T14:38:43;2.03;;;1.20;;
10769;SDS011;5437;50.852;4.438;2022-10-22T14:41:18;3.65;;;1.30;;
10769;SDS011;5437;50.852;4.438;2022-10-22T14:43:45;3.15;;;1.02;;
10769;SDS011;5437;50.852;4.438;2022-10-22T14:46:11;4.30;;;1.27;;
10769;SDS011;5437;50.852;4.438;2022-10-22T14:48:38;4.60;;;1.17;;
10769;SDS011;5437;50.852;4.438;2022-10-22T14:51:04;4.47;;;1.30;;
10769;SDS011;5437;50.852;4.438;2022-10-22T14:53:30;4.50;;;1.40;;
10769;SDS011;5437;50.852;4.438;2022-10-22T14:55:56;4.05;;;1.60;;
10769;SDS011;5437;50.852;4.438;2022-10-22T14:58:23;4.60;;;1.40;;
10769;SDS011;5437;50.852;4.438;2022-10-22T15:00:49;3.70;;;1.10;;
10769;SDS011;5437;50.852;4.438;2022-10-22T15:03:15;3.92;;;1.40;;
10769;SDS011;5437;50.852;4.438;2022-10-22T15:05:42;2.47;;;1.48;;
10769;SDS011;5437;50.852;4.438;2022-10-22T15:08:09;6.22;;;1.50;;
10769;SDS011;5437;50.852;4.438;2022-10-22T15:10:35;2.58;;;1.30;;
10769;SDS011;5437;50.852;4.438;2022-10-22T15:13:01;4.07;;;1.70;;
10769;SDS011;5437;50.852;4.438;2022-10-22T15:15:27;3.58;;;1.50;;
10769;SDS011;5437;50.852;4.438;2022-10-22T15:17:53;1.80;;;1.17;;
10769;SDS011;5437;50.852;4.438;2022-10-22T15:20:19;3.50;;;1.13;;
10769;SDS011;5437;50.852;4.438;2022-10-22T15:22:45;4.55;;;1.20;;
10769;SDS011;5437;50.852;4.438;2022-10-22T15:25:11;3.22;;;1.55;;
10769;SDS011;5437;50.852;4.438;2022-10-22T15:27:38;4.28;;;1.40;;
10769;SDS011;5437;50.852;4.438;2022-10-22T15:30:04;3.92;;;1.25;;
10769;SDS011;5437;50.852;4.438;2022-10-22T15:32:31;3.97;;;1.20;;
10769;SDS011;5437;50.852;4.438;2022-10-22T15:34:58;4.07;;;1.60;;
10769;SDS011;5437;50.852;4.438;2022-10-22T15:37:24;4.57;;;1.30;;
10769;SDS011;5437;50.852;4.438;2022-10-22T15:39:50;3.83;;;1.05;;
10769;SDS011;5437;50.852;4.438;2022-10-22T15:42:17;4.80;;;1.88;;
10769;SDS011;5437;50.852;4.438;2022-10-22T15:44:43;4.10;;;1.50;;
10769;SDS011;5437;50.852;4.438;2022-10-22T15:47:09;4.70;;;1.50;;
10769;SDS011;5437;50.852;4.438;2022-10-22T15:49:36;6.00;;;1.65;;
10769;SDS011;5437;50.852;4.438;2022-10-22T15:52:03;4.55;;;1.55;;
10769;SDS011;5437;50.852;4.438;2022-10-22T15:54:29;3.08;;;1.30;;
10769;SDS011;5437;50.852;4.438;2022-10-22T15:56:56;2.63;;;1.38;;
10769;SDS011;5437;50.852;4.438;2022-10-22T15:59:23;4.63;;;1.65;;
10769;SDS011;5437;50.852;4.438;2022-10-22T16:01:49;4.47;;;1.55;;
10769;SDS011;5437;50.852;4.438;2022-10-22T16:04:15;3.97;;;1.60;;
10769;SDS011;5437;50.852;4.438;2022-10-22T16:06:42;4.15;;;1.48;;
10769;SDS011;5437;50.852;4.438;2022-10-22T16:09:09;4.35;;;1.63;;
10769;SDS011;5437;50.852;4.438;2022-10-22T16:11:36;3.67;;;1.63;;
10769;SDS011;5437;50.852;4.438;2022-10-22T16:14:02;5.95;;;2.10;;
10769;SDS011;5437;50.852;4.438;2022-10-22T16:16:29;4.70;;;1.83;;
10769;SDS011;5437;50.852;4.438;2022-10-22T16:18:55;5.22;;;1.80;;
10769;SDS011;5437;50.852;4.438;2022-10-22T16:21:22;5.40;;;1.85;;
10769;SDS011;5437;50.852;4.438;2022-10-22T16:23:48;3.92;;;1.60;;
10769;SDS011;5437;50.852;4.438;2022-10-22T16:26:15;3.97;;;1.70;;
10769;SDS011;5437;50.852;4.438;2022-10-22T16:28:41;4.60;;;2.17;;
10769;SDS011;5437;50.852;4.438;2022-10-22T16:31:09;4.90;;;2.13;;
10769;SDS011;5437;50.852;4.438;2022-10-22T16:33:36;6.70;;;2.05;;
10769;SDS011;5437;50.852;4.438;2022-10-22T16:36:03;4.63;;;2.00;;
10769;SDS011;5437;50.852;4.438;2022-10-22T16:38:29;3.22;;;1.88;;
10769;SDS011;5437;50.852;4.438;2022-10-22T16:41:05;5.28;;;1.92;;
10769;SDS011;5437;50.852;4.438;2022-10-22T16:43:31;6.80;;;2.10;;
10769;SDS011;5437;50.852;4.438;2022-10-22T16:45:57;5.35;;;2.17;;